createdAt,value
2018-06-03T00:01:30.152Z,79.27
2018-06-03T00:03:58.992Z,78.30
2018-06-03T00:06:27.832Z,80.67
2018-06-03T00:08:56.659Z,79.27
2018-06-03T00:11:25.501Z,81.93
2018-06-03T00:13:54.341Z,90.93
2018-06-03T00:16:23.172Z,89.47
2018-06-03T00:18:52.020Z,98.93
2018-06-03T00:21:43.139Z,81.50
2018-06-03T00:24:12.178Z,81.07
2018-06-03T00:26:41.013Z,80.33
2018-06-03T00:29:09.854Z,79.23
2018-06-03T00:31:38.700Z,83.87
2018-06-03T00:34:07.549Z,83.77
2018-06-03T00:36:48.757Z,82.40
2018-06-03T00:39:17.533Z,83.07
2018-06-03T00:41:46.379Z,85.57
2018-06-03T00:44:15.252Z,94.63
2018-06-03T00:46:44.066Z,93.73
2018-06-03T00:49:12.913Z,94.33
2018-06-03T00:51:41.756Z,90.47
2018-06-03T00:54:10.593Z,88.10
2018-06-03T00:57:09.839Z,86.33
2018-06-03T00:59:39.313Z,97.10
2018-06-03T01:02:08.453Z,85.40
2018-06-03T01:04:37.305Z,100.43
2018-06-03T01:07:06.143Z,89.10
2018-06-03T01:09:34.993Z,90.50
2018-06-03T01:12:03.850Z,90.67
2018-06-03T01:14:32.688Z,89.90
2018-06-03T01:17:01.668Z,89.70
2018-06-03T01:19:30.541Z,92.47
2018-06-03T01:21:59.400Z,104.87
2018-06-03T01:24:28.236Z,105.03
2018-06-03T01:26:57.090Z,90.80
2018-06-03T01:29:25.921Z,93.33
2018-06-03T01:31:54.768Z,106.25
2018-06-03T01:34:23.607Z,96.83
2018-06-03T01:36:52.450Z,99.03
2018-06-03T01:39:21.305Z,97.30
2018-06-03T01:41:50.140Z,103.13
2018-06-03T01:44:18.959Z,96.73
2018-06-03T01:46:47.803Z,100.80
2018-06-03T01:49:16.656Z,101.10
2018-06-03T01:51:45.527Z,102.33
2018-06-03T01:54:14.367Z,108.53
2018-06-03T01:56:43.209Z,103.40
2018-06-03T01:59:12.051Z,105.73
2018-06-03T02:01:40.888Z,104.90
2018-06-03T02:04:09.748Z,104.47
2018-06-03T02:06:38.619Z,109.33
2018-06-03T02:09:07.676Z,103.87
2018-06-03T02:11:36.533Z,106.83
2018-06-03T02:14:05.375Z,109.93
2018-06-03T02:16:34.385Z,115.40
2018-06-03T02:19:03.221Z,114.00
2018-06-03T02:21:32.096Z,108.57
2018-06-03T02:24:00.920Z,110.70
2018-06-03T02:26:29.770Z,109.53
2018-06-03T02:28:58.650Z,107.77
2018-06-03T02:31:27.479Z,100.73
2018-06-03T02:33:56.358Z,110.27
2018-06-03T02:36:25.235Z,107.10
2018-06-03T02:38:54.081Z,106.67
2018-06-03T02:41:22.916Z,109.93
2018-06-03T02:43:51.757Z,109.20
2018-06-03T02:46:20.607Z,108.83
2018-06-03T02:48:50.264Z,114.87
2018-06-03T02:51:19.104Z,105.40
2018-06-03T02:53:47.988Z,104.80
2018-06-03T02:56:17.683Z,106.80
2018-06-03T02:58:46.549Z,108.77
2018-06-03T03:01:15.384Z,112.90
2018-06-03T03:03:44.219Z,104.40
2018-06-03T03:06:13.081Z,109.97
2018-06-03T03:08:41.937Z,103.27
2018-06-03T03:11:10.776Z,107.97
2018-06-03T03:13:39.623Z,108.17
2018-06-03T03:16:08.481Z,103.83
2018-06-03T03:18:37.331Z,108.23
2018-06-03T03:21:06.174Z,102.47
2018-06-03T03:23:34.998Z,104.23
2018-06-03T03:26:03.838Z,97.53
2018-06-03T03:28:32.684Z,103.83
2018-06-03T03:31:01.551Z,102.47
2018-06-03T03:33:30.402Z,100.77
2018-06-03T03:35:59.302Z,110.27
2018-06-03T03:38:28.156Z,114.45
2018-06-03T03:40:57.006Z,107.92
2018-06-03T03:43:25.868Z,103.03
2018-06-03T03:45:54.696Z,95.97
2018-06-03T03:48:23.556Z,93.40
2018-06-03T03:50:52.378Z,91.27
2018-06-03T03:53:21.337Z,106.37
2018-06-03T03:55:50.164Z,97.87
2018-06-03T03:58:19.524Z,89.50
2018-06-03T04:00:48.371Z,95.10
2018-06-03T04:03:17.225Z,104.30
2018-06-03T04:05:46.086Z,99.07
2018-06-03T04:08:14.920Z,94.33
2018-06-03T04:10:43.779Z,97.23
2018-06-03T04:13:12.613Z,98.97
2018-06-03T04:15:41.444Z,96.20
2018-06-03T04:18:10.250Z,95.23
2018-06-03T04:20:39.096Z,92.07
2018-06-03T04:23:07.926Z,100.03
2018-06-03T04:25:36.764Z,94.33
2018-06-03T04:28:05.611Z,93.70
2018-06-03T04:30:34.425Z,104.03
2018-06-03T04:33:03.318Z,92.37
2018-06-03T04:35:32.136Z,97.13
2018-06-03T04:38:01.007Z,96.80
2018-06-03T04:40:29.840Z,102.30
2018-06-03T04:42:58.658Z,93.77
2018-06-03T04:45:27.502Z,98.67
2018-06-03T04:47:56.392Z,104.97
2018-06-03T04:50:25.232Z,95.90
2018-06-03T04:52:54.058Z,104.23
2018-06-03T04:55:22.892Z,94.83
2018-06-03T04:57:51.756Z,98.03
2018-06-03T05:00:20.712Z,97.50
2018-06-03T05:02:49.560Z,96.63
2018-06-03T05:05:18.391Z,93.37
2018-06-03T05:07:47.226Z,91.43
2018-06-03T05:10:16.089Z,95.83
2018-06-03T05:12:44.918Z,88.93
2018-06-03T05:15:13.780Z,92.17
2018-06-03T05:17:42.592Z,92.93
2018-06-03T05:20:11.536Z,89.47
2018-06-03T05:22:40.375Z,81.03
2018-06-03T05:25:09.254Z,73.30
2018-06-03T05:27:38.098Z,76.03
2018-06-03T05:30:06.945Z,66.10
2018-06-03T05:32:35.786Z,64.57
2018-06-03T05:35:04.609Z,69.77
2018-06-03T05:37:33.497Z,66.33
2018-06-03T05:40:02.310Z,64.17
2018-06-03T05:42:31.225Z,62.07
2018-06-03T05:45:00.054Z,58.93
2018-06-03T05:47:28.898Z,60.40
2018-06-03T05:49:57.744Z,62.83
2018-06-03T05:52:27.666Z,62.27
2018-06-03T05:54:56.505Z,65.70
2018-06-03T05:57:25.395Z,59.30
2018-06-03T05:59:54.234Z,63.63
2018-06-03T06:02:23.090Z,61.87
2018-06-03T06:04:51.935Z,57.83
2018-06-03T06:07:20.801Z,61.77
2018-06-03T06:09:49.653Z,55.43
2018-06-03T06:12:18.807Z,54.90
2018-06-03T06:14:47.644Z,50.87
2018-06-03T06:17:16.472Z,52.23
2018-06-03T06:19:45.348Z,50.10
2018-06-03T06:22:14.230Z,55.93
2018-06-03T06:24:43.055Z,46.17
2018-06-03T06:27:11.922Z,50.38
2018-06-03T06:29:40.805Z,43.50
2018-06-03T06:32:09.681Z,46.47
2018-06-03T06:34:38.524Z,40.27
2018-06-03T06:37:07.364Z,40.23
2018-06-03T06:39:36.189Z,34.77
2018-06-03T06:42:05.054Z,39.78
2018-06-03T06:44:33.899Z,37.30
2018-06-03T06:47:02.743Z,36.40
2018-06-03T06:49:31.606Z,35.57
2018-06-03T06:52:00.433Z,34.87
2018-06-03T06:54:29.286Z,33.93
2018-06-03T06:56:58.149Z,34.90
2018-06-03T06:59:26.994Z,34.17
2018-06-03T07:01:55.871Z,33.40
2018-06-03T07:04:24.717Z,35.20
2018-06-03T07:06:53.576Z,35.63
2018-06-03T07:09:22.444Z,34.93
2018-06-03T07:11:51.318Z,35.40
2018-06-03T07:14:20.308Z,38.55
2018-06-03T07:16:49.185Z,38.88
2018-06-03T07:19:18.037Z,36.03
2018-06-03T07:21:46.920Z,37.67
2018-06-03T07:24:15.787Z,29.47
2018-06-03T07:26:44.883Z,30.47
2018-06-03T07:29:13.776Z,25.57
2018-06-03T07:31:42.621Z,23.87
2018-06-03T07:34:11.469Z,21.10
2018-06-03T07:36:40.321Z,23.83
2018-06-03T07:39:09.157Z,27.93
2018-06-03T07:41:38.022Z,24.93
2018-06-03T07:44:06.865Z,23.43
2018-06-03T07:46:35.711Z,25.33
2018-06-03T07:49:04.569Z,24.63
2018-06-03T07:51:33.407Z,25.97
2018-06-03T07:54:02.279Z,25.03
2018-06-03T07:56:31.089Z,28.30
2018-06-03T07:58:59.946Z,30.57
2018-06-03T08:01:28.770Z,32.63
2018-06-03T08:03:57.633Z,29.10
2018-06-03T08:06:26.462Z,30.63
2018-06-03T08:08:55.355Z,29.20
2018-06-03T08:11:24.176Z,27.23
2018-06-03T08:13:53.029Z,25.73
2018-06-03T08:16:22.022Z,26.80
2018-06-03T08:18:50.861Z,25.27
2018-06-03T08:21:19.712Z,28.20
2018-06-03T08:23:48.534Z,28.00
2018-06-03T08:26:17.368Z,30.40
2018-06-03T08:28:46.193Z,22.98
2018-06-03T08:31:15.007Z,23.00
2018-06-03T08:33:43.857Z,26.12
2018-06-03T08:36:12.705Z,24.50
2018-06-03T08:38:41.534Z,22.87
2018-06-03T08:41:10.392Z,25.20
2018-06-03T08:43:39.209Z,25.92
2018-06-03T08:46:08.032Z,21.65
2018-06-03T08:48:36.859Z,20.83
2018-06-03T08:51:05.721Z,22.48
2018-06-03T08:53:34.567Z,20.62
2018-06-03T08:56:03.404Z,18.55
2018-06-03T08:58:32.265Z,23.75
2018-06-03T09:01:01.096Z,19.57
2018-06-03T09:03:29.944Z,23.40
2018-06-03T09:05:58.770Z,23.62
2018-06-03T09:08:27.597Z,26.12
2018-06-03T09:10:56.440Z,23.62
2018-06-03T09:13:25.281Z,24.30
2018-06-03T09:15:54.183Z,26.45
2018-06-03T09:18:23.000Z,26.90
2018-06-03T09:20:51.878Z,30.20
2018-06-03T09:23:20.692Z,31.30
2018-06-03T09:25:49.558Z,31.57
2018-06-03T09:28:18.358Z,28.80
2018-06-03T09:30:47.190Z,27.02
2018-06-03T09:33:16.034Z,26.55
2018-06-03T09:35:44.870Z,27.60
2018-06-03T09:38:13.703Z,29.05
2018-06-03T09:40:42.546Z,28.10
2018-06-03T09:43:11.395Z,26.00
2018-06-03T09:45:40.225Z,28.27
2018-06-03T09:48:09.071Z,32.90
2018-06-03T09:50:37.900Z,30.80
2018-06-03T09:53:06.966Z,29.57
2018-06-03T09:55:35.783Z,31.93
2018-06-03T09:58:04.654Z,34.13
2018-06-03T10:00:33.748Z,35.25
2018-06-03T10:03:02.869Z,33.42
2018-06-03T10:05:31.707Z,32.17
2018-06-03T10:08:00.559Z,30.72
2018-06-03T10:10:29.410Z,34.58
2018-06-03T10:12:58.235Z,34.25
2018-06-03T10:15:27.090Z,36.37
2018-06-03T10:17:55.929Z,32.67
2018-06-03T10:20:24.762Z,33.47
2018-06-03T10:22:53.626Z,32.63
2018-06-03T10:25:22.481Z,31.10
2018-06-03T10:27:51.314Z,30.73
2018-06-03T10:30:20.174Z,29.18
2018-06-03T10:32:49.070Z,29.15
2018-06-03T10:35:17.942Z,26.85
2018-06-03T10:37:46.762Z,20.92
2018-06-03T10:40:15.588Z,23.12
2018-06-03T10:42:44.436Z,23.00
2018-06-03T10:45:13.284Z,23.35
2018-06-03T10:47:42.102Z,22.55
2018-06-03T10:50:10.930Z,22.42
2018-06-03T10:52:39.793Z,21.10
2018-06-03T10:55:08.636Z,22.32
2018-06-03T10:57:37.454Z,26.42
2018-06-03T11:00:06.370Z,26.90
2018-06-03T11:02:35.203Z,28.02
2018-06-03T11:05:04.068Z,27.15
2018-06-03T11:07:32.910Z,23.57
2018-06-03T11:10:01.763Z,24.70
2018-06-03T11:12:30.591Z,23.25
2018-06-03T11:14:59.495Z,26.73
2018-06-03T11:17:28.256Z,27.40
2018-06-03T11:19:57.093Z,23.20
2018-06-03T11:22:25.923Z,25.32
2018-06-03T11:24:54.833Z,24.32
2018-06-03T11:27:23.664Z,19.30
2018-06-03T11:29:52.521Z,17.48
2018-06-03T11:32:21.396Z,17.07
2018-06-03T11:34:50.249Z,16.57
2018-06-03T11:37:19.111Z,15.78
2018-06-03T11:39:47.949Z,16.67
2018-06-03T11:42:16.798Z,19.12
2018-06-03T11:44:45.666Z,23.05
2018-06-03T11:47:14.519Z,24.45
2018-06-03T11:49:43.357Z,22.60
2018-06-03T11:52:12.203Z,22.58
2018-06-03T11:54:41.037Z,19.30
2018-06-03T11:57:09.933Z,21.25
2018-06-03T11:59:45.082Z,20.02
2018-06-03T12:02:15.433Z,19.67
2018-06-03T12:04:44.341Z,18.25
2018-06-03T12:07:13.124Z,16.42
2018-06-03T12:09:41.954Z,17.65
2018-06-03T12:12:10.851Z,17.10
2018-06-03T12:14:39.830Z,16.07
2018-06-03T12:17:08.626Z,17.77
2018-06-03T12:19:37.620Z,17.40
2018-06-03T12:22:06.474Z,16.65
2018-06-03T12:24:35.304Z,15.23
2018-06-03T12:27:04.158Z,16.73
2018-06-03T12:29:32.997Z,18.15
2018-06-03T12:32:01.860Z,17.77
2018-06-03T12:34:30.741Z,17.05
2018-06-03T12:36:59.572Z,17.15
2018-06-03T12:39:28.481Z,14.53
2018-06-03T12:41:57.341Z,12.15
2018-06-03T12:44:26.205Z,12.58
2018-06-03T12:46:55.058Z,16.25
2018-06-03T12:49:24.088Z,14.55
2018-06-03T12:51:53.017Z,15.35
2018-06-03T12:54:21.876Z,13.80
2018-06-03T12:56:50.772Z,13.68
2018-06-03T12:59:19.667Z,14.00
2018-06-03T13:01:48.553Z,18.35
2018-06-03T13:04:17.424Z,15.32
2018-06-03T13:06:46.264Z,15.65
2018-06-03T13:09:15.134Z,13.98
2018-06-03T13:11:44.002Z,14.60
2018-06-03T13:14:12.941Z,14.95
2018-06-03T13:16:41.805Z,16.85
2018-06-03T13:19:10.694Z,17.17
2018-06-03T13:21:39.517Z,14.13
2018-06-03T13:24:08.507Z,13.65
2018-06-03T13:26:37.351Z,12.33
2018-06-03T13:29:06.224Z,12.80
2018-06-03T13:31:35.067Z,12.63
2018-06-03T13:34:03.897Z,13.28
2018-06-03T13:36:32.762Z,12.30
2018-06-03T13:39:01.616Z,13.53
2018-06-03T13:41:30.471Z,13.40
2018-06-03T13:43:59.331Z,12.53
2018-06-03T13:46:28.261Z,11.53
2018-06-03T13:48:57.023Z,11.63
2018-06-03T13:51:25.899Z,11.75
2018-06-03T13:53:54.688Z,12.47
2018-06-03T13:56:23.513Z,12.60
2018-06-03T13:58:52.389Z,12.37
2018-06-03T14:01:21.207Z,12.23
2018-06-03T14:03:50.108Z,11.60
2018-06-03T14:06:18.953Z,11.70
2018-06-03T14:08:47.830Z,13.10
2018-06-03T14:11:16.733Z,12.60
2018-06-03T14:13:45.579Z,12.37
2018-06-03T14:16:14.424Z,13.58
2018-06-03T14:18:43.293Z,13.20
2018-06-03T14:21:12.226Z,12.07
2018-06-03T14:23:41.036Z,13.93
2018-06-03T14:26:09.917Z,13.20
2018-06-03T14:28:38.740Z,12.60
2018-06-03T14:31:07.578Z,13.10
2018-06-03T14:33:36.391Z,13.18
2018-06-03T14:36:05.410Z,12.98
2018-06-03T14:38:34.250Z,12.33
2018-06-03T14:41:03.091Z,12.78
2018-06-03T14:43:31.945Z,12.88
2018-06-03T14:46:00.786Z,11.93
2018-06-03T14:48:29.599Z,12.55
2018-06-03T14:50:58.431Z,11.97
2018-06-03T14:53:27.295Z,12.30
2018-06-03T14:55:56.124Z,13.22
2018-06-03T14:58:24.968Z,13.78
2018-06-03T15:00:53.818Z,13.53
2018-06-03T15:03:22.663Z,14.93
2018-06-03T15:05:51.518Z,13.62
2018-06-03T15:08:20.355Z,13.38
2018-06-03T15:10:49.210Z,13.40
2018-06-03T15:13:18.067Z,12.23
2018-06-03T15:15:46.882Z,14.20
2018-06-03T15:18:15.728Z,12.45
2018-06-03T15:20:44.578Z,12.30
2018-06-03T15:23:13.423Z,13.75
2018-06-03T15:25:42.278Z,12.88
2018-06-03T15:28:11.172Z,11.50
2018-06-03T15:30:40.030Z,11.33
2018-06-03T15:33:08.888Z,11.53
2018-06-03T15:35:37.747Z,11.63
2018-06-03T15:38:06.593Z,9.73
2018-06-03T15:40:35.417Z,11.70
2018-06-03T15:43:04.240Z,11.00
2018-06-03T15:45:33.127Z,10.08
2018-06-03T15:48:02.436Z,9.40
2018-06-03T15:50:31.339Z,10.40
2018-06-03T15:53:00.197Z,10.20
2018-06-03T15:55:29.036Z,9.20
2018-06-03T15:57:57.881Z,9.48
2018-06-03T16:00:27.113Z,8.58
2018-06-03T16:02:56.047Z,10.40
2018-06-03T16:05:24.764Z,8.30
2018-06-03T16:07:53.605Z,8.08
2018-06-03T16:10:22.582Z,9.58
2018-06-03T16:12:51.584Z,8.48
2018-06-03T16:15:20.430Z,8.23
2018-06-03T16:17:49.264Z,8.75
2018-06-03T16:20:18.101Z,9.45
2018-06-03T16:22:47.254Z,9.80
2018-06-03T16:25:16.125Z,8.63
2018-06-03T16:27:45.009Z,10.13
2018-06-03T16:30:13.797Z,9.65
2018-06-03T16:32:42.689Z,10.90
2018-06-03T16:35:11.580Z,10.38
2018-06-03T16:37:40.422Z,10.03
2018-06-03T16:40:09.267Z,11.55
2018-06-03T16:42:38.133Z,9.95
2018-06-03T16:45:07.031Z,8.90
2018-06-03T16:47:35.904Z,9.15
2018-06-03T16:50:04.732Z,9.58
2018-06-03T16:52:33.572Z,9.40
2018-06-03T16:55:02.444Z,8.48
2018-06-03T16:57:31.266Z,9.53
2018-06-03T17:00:00.072Z,9.68
2018-06-03T17:02:28.930Z,8.98
2018-06-03T17:04:57.759Z,8.30
2018-06-03T17:07:26.612Z,7.87
2018-06-03T17:09:55.433Z,7.15
2018-06-03T17:12:24.272Z,8.23
2018-06-03T17:14:53.173Z,7.30
2018-06-03T17:17:21.936Z,7.20
2018-06-03T17:19:50.778Z,7.72
2018-06-03T17:22:19.618Z,8.58
2018-06-03T17:24:48.451Z,8.55
2018-06-03T17:27:17.340Z,8.13
2018-06-03T17:29:46.124Z,7.90
2018-06-03T17:32:14.952Z,9.30
2018-06-03T17:34:43.804Z,9.48
2018-06-03T17:37:12.610Z,9.18
2018-06-03T17:39:41.469Z,9.30
2018-06-03T17:42:10.691Z,9.18
2018-06-03T17:44:39.554Z,9.97
2018-06-03T17:47:08.380Z,9.93
2018-06-03T17:49:37.233Z,10.20
2018-06-03T17:52:06.175Z,9.08
2018-06-03T17:54:35.026Z,10.50
2018-06-03T17:57:03.900Z,10.08
2018-06-03T17:59:32.712Z,10.20
2018-06-03T18:02:01.572Z,10.53
2018-06-03T18:04:30.424Z,10.20
2018-06-03T18:06:59.262Z,11.20
2018-06-03T18:09:28.073Z,10.07
2018-06-03T18:11:57.170Z,10.25
2018-06-03T18:14:26.006Z,10.10
2018-06-03T18:16:54.906Z,11.80
2018-06-03T18:19:23.724Z,10.83
2018-06-03T18:21:52.564Z,9.53
2018-06-03T18:24:21.415Z,10.65
2018-06-03T18:26:50.298Z,9.48
2018-06-03T18:29:19.044Z,10.13
2018-06-03T18:31:47.872Z,10.23
2018-06-03T18:34:16.708Z,9.55
2018-06-03T18:36:45.546Z,9.23
2018-06-03T18:39:14.360Z,9.67
2018-06-03T18:41:43.200Z,10.10
2018-06-03T18:44:12.026Z,10.82
2018-06-03T18:46:40.870Z,10.23
2018-06-03T18:49:09.692Z,10.57
2018-06-03T18:51:38.542Z,9.57
2018-06-03T18:54:07.364Z,9.80
2018-06-03T18:56:36.169Z,9.53
2018-06-03T18:59:05.002Z,9.93
2018-06-03T19:01:33.840Z,10.00
2018-06-03T19:04:02.699Z,10.07
2018-06-03T19:06:31.544Z,9.17
2018-06-03T19:09:00.484Z,10.73
2018-06-03T19:11:29.313Z,10.00
2018-06-03T19:13:58.303Z,8.97
2018-06-03T19:16:27.003Z,10.10
2018-06-03T19:18:55.860Z,11.40
2018-06-03T19:21:24.704Z,9.57
2018-06-03T19:23:53.544Z,9.70
2018-06-03T19:26:22.639Z,9.37
2018-06-03T19:28:51.490Z,9.00
2018-06-03T19:31:20.363Z,9.93
2018-06-03T19:33:49.191Z,9.60
2018-06-03T19:36:18.044Z,8.90
2018-06-03T19:38:46.879Z,10.32
2018-06-03T19:41:15.731Z,9.67
2018-06-03T19:43:44.539Z,9.73
2018-06-03T19:46:13.420Z,9.50
2018-06-03T19:48:42.241Z,10.97
2018-06-03T19:51:11.074Z,9.17
2018-06-03T19:53:39.919Z,9.57
2018-06-03T19:56:08.720Z,9.43
2018-06-03T19:58:37.588Z,8.43
2018-06-03T20:01:06.405Z,10.20
2018-06-03T20:03:35.290Z,10.10
2018-06-03T20:06:04.063Z,10.67
2018-06-03T20:08:32.902Z,9.17
2018-06-03T20:11:01.720Z,10.13
2018-06-03T20:13:30.544Z,10.23
2018-06-03T20:15:59.599Z,9.80
2018-06-03T20:18:28.435Z,10.20
2018-06-03T20:20:57.255Z,9.97
2018-06-03T20:23:26.272Z,10.10
2018-06-03T20:25:55.114Z,10.60
2018-06-03T20:28:23.972Z,13.73
2018-06-03T20:30:52.807Z,10.93
2018-06-03T20:33:21.655Z,11.67
2018-06-03T20:35:50.563Z,12.40
2018-06-03T20:38:19.425Z,12.07
2018-06-03T20:40:48.274Z,12.30
2018-06-03T20:43:17.333Z,12.07
2018-06-03T20:45:46.160Z,12.43
2018-06-03T20:48:15.293Z,12.93
2018-06-03T20:50:44.149Z,12.07
2018-06-03T20:53:12.986Z,12.77
2018-06-03T20:55:41.971Z,13.83
2018-06-03T20:58:10.784Z,14.23
2018-06-03T21:00:39.700Z,15.10
2018-06-03T21:03:08.527Z,15.20
2018-06-03T21:05:37.373Z,17.67
2018-06-03T21:08:06.540Z,16.23
2018-06-03T21:10:35.368Z,18.13
2018-06-03T21:13:04.221Z,17.13
2018-06-03T21:15:33.099Z,19.27
2018-06-03T21:18:01.972Z,19.03
2018-06-03T21:20:30.923Z,20.50
2018-06-03T21:22:59.766Z,20.10
2018-06-03T21:25:28.610Z,21.43
2018-06-03T21:27:57.469Z,23.43
2018-06-03T21:30:26.323Z,21.43
2018-06-03T21:32:55.164Z,21.87
2018-06-03T21:35:24.016Z,23.43
2018-06-03T21:37:52.854Z,22.67
2018-06-03T21:40:21.716Z,25.40
2018-06-03T21:42:50.530Z,24.60
2018-06-03T21:45:19.367Z,23.93
2018-06-03T21:47:48.211Z,25.53
2018-06-03T21:50:17.044Z,25.50
2018-06-03T21:52:45.875Z,22.83
2018-06-03T21:55:14.753Z,25.00
2018-06-03T21:57:43.574Z,27.60
2018-06-03T22:00:12.424Z,26.20
2018-06-03T22:02:41.260Z,28.80
2018-06-03T22:05:11.257Z,26.90
2018-06-03T22:07:40.195Z,30.70
2018-06-03T22:10:08.985Z,25.47
2018-06-03T22:12:37.819Z,27.23
2018-06-03T22:15:06.669Z,26.37
2018-06-03T22:17:35.508Z,29.80
2018-06-03T22:20:04.384Z,27.13
2018-06-03T22:22:33.232Z,27.00
2018-06-03T22:25:02.079Z,27.03
2018-06-03T22:27:30.911Z,28.10
2018-06-03T22:29:59.770Z,28.93
2018-06-03T22:32:28.596Z,25.50
2018-06-03T22:34:57.436Z,29.33
2018-06-03T22:37:26.357Z,27.20
2018-06-03T22:39:55.171Z,30.67
2018-06-03T22:42:23.998Z,27.30
2018-06-03T22:44:52.845Z,31.05
2018-06-03T22:47:21.710Z,30.93
2018-06-03T22:49:50.555Z,27.27
2018-06-03T22:52:19.421Z,31.50
2018-06-03T22:54:48.250Z,31.87
2018-06-03T22:57:49.265Z,28.07
2018-06-03T23:00:35.445Z,26.53
2018-06-03T23:03:16.835Z,28.73
2018-06-03T23:05:45.690Z,29.33
2018-06-03T23:08:14.546Z,27.93
2018-06-03T23:10:43.367Z,30.77
2018-06-03T23:13:12.203Z,30.67
2018-06-03T23:15:41.085Z,33.98
2018-06-03T23:18:09.925Z,37.83
2018-06-03T23:20:38.764Z,32.93
2018-06-03T23:23:07.606Z,28.40
2018-06-03T23:25:36.438Z,30.40
2018-06-03T23:28:05.467Z,30.47
2018-06-03T23:30:34.300Z,32.60
2018-06-03T23:33:03.134Z,28.17
2018-06-03T23:35:31.973Z,32.27
2018-06-03T23:38:00.807Z,30.50
2018-06-03T23:40:29.652Z,34.90
2018-06-03T23:42:58.486Z,35.13
2018-06-03T23:45:27.350Z,36.87
2018-06-03T23:47:56.198Z,35.73
2018-06-03T23:50:25.035Z,31.47
2018-06-03T23:52:53.902Z,39.38
2018-06-03T23:55:22.760Z,33.67
2018-06-03T23:57:51.624Z,36.50
